sensor_id;sensor_type;location;lat;lon;timestamp;P1;durP1;ratioP1;P2;durP2;ratioP2
52188;SDS011;38162;45.926;13.608;2022-11-13T00:00:33;7.55;;;4.03;;
52188;SDS011;38162;45.926;13.608;2022-11-13T00:02:59;5.07;;;3.55;;
52188;SDS011;38162;45.926;13.608;2022-11-13T00:05:24;6.10;;;3.47;;
52188;SDS011;38162;45.926;13.608;2022-11-13T00:07:50;5.35;;;3.88;;
52188;SDS011;38162;45.926;13.608;2022-11-13T00:10:16;6.07;;;3.75;;
52188;SDS011;38162;45.926;13.608;2022-11-13T00:12:41;9.23;;;3.80;;
52188;SDS011;38162;45.926;13.608;2022-11-13T00:15:07;6.47;;;4.10;;
52188;SDS011;38162;45.926;13.608;2022-11-13T00:17:33;8.25;;;4.18;;
52188;SDS011;38162;45.926;13.608;2022-11-13T00:19:59;7.38;;;3.50;;
52188;SDS011;38162;45.926;13.608;2022-11-13T00:22:24;6.95;;;4.15;;
52188;SDS011;38162;45.926;13.608;2022-11-13T00:24:50;7.15;;;4.20;;
52188;SDS011;38162;45.926;13.608;2022-11-13T00:27:16;8.00;;;4.30;;
52188;SDS011;38162;45.926;13.608;2022-11-13T00:29:41;8.40;;;4.32;;
52188;SDS011;38162;45.926;13.608;2022-11-13T00:32:07;7.55;;;4.32;;
52188;SDS011;38162;45.926;13.608;2022-11-13T00:34:33;6.95;;;4.35;;
52188;SDS011;38162;45.926;13.608;2022-11-13T00:36:58;9.68;;;4.80;;
52188;SDS011;38162;45.926;13.608;2022-11-13T00:39:24;8.98;;;4.20;;
52188;SDS011;38162;45.926;13.608;2022-11-13T00:41:50;8.45;;;5.15;;
52188;SDS011;38162;45.926;13.608;2022-11-13T00:44:15;9.40;;;4.75;;
52188;SDS011;38162;45.926;13.608;2022-11-13T00:46:41;6.10;;;4.40;;
52188;SDS011;38162;45.926;13.608;2022-11-13T00:49:07;12.00;;;5.20;;
52188;SDS011;38162;45.926;13.608;2022-11-13T00:51:32;7.15;;;4.70;;
52188;SDS011;38162;45.926;13.608;2022-11-13T00:53:58;11.55;;;4.93;;
52188;SDS011;38162;45.926;13.608;2022-11-13T00:56:24;11.05;;;4.50;;
52188;SDS011;38162;45.926;13.608;2022-11-13T00:58:49;9.23;;;4.55;;
52188;SDS011;38162;45.926;13.608;2022-11-13T01:01:16;8.23;;;4.55;;
52188;SDS011;38162;45.926;13.608;2022-11-13T01:03:43;7.47;;;4.55;;
52188;SDS011;38162;45.926;13.608;2022-11-13T01:06:14;6.97;;;4.90;;
52188;SDS011;38162;45.926;13.608;2022-11-13T01:08:43;10.57;;;4.90;;
52188;SDS011;38162;45.926;13.608;2022-11-13T01:11:15;7.63;;;5.07;;
52188;SDS011;38162;45.926;13.608;2022-11-13T01:13:43;13.88;;;4.72;;
52188;SDS011;38162;45.926;13.608;2022-11-13T01:16:11;9.15;;;4.75;;
52188;SDS011;38162;45.926;13.608;2022-11-13T01:18:37;8.25;;;4.82;;
52188;SDS011;38162;45.926;13.608;2022-11-13T01:21:08;7.22;;;4.75;;
52188;SDS011;38162;45.926;13.608;2022-11-13T01:23:34;7.88;;;5.05;;
52188;SDS011;38162;45.926;13.608;2022-11-13T01:26:04;8.32;;;4.63;;
52188;SDS011;38162;45.926;13.608;2022-11-13T01:28:57;7.43;;;4.43;;
52188;SDS011;38162;45.926;13.608;2022-11-13T01:31:25;8.35;;;4.45;;
52188;SDS011;38162;45.926;13.608;2022-11-13T01:33:55;8.37;;;4.83;;
52188;SDS011;38162;45.926;13.608;2022-11-13T01:36:22;7.63;;;4.55;;
52188;SDS011;38162;45.926;13.608;2022-11-13T01:38:50;6.43;;;4.20;;
52188;SDS011;38162;45.926;13.608;2022-11-13T01:41:18;7.13;;;3.92;;
52188;SDS011;38162;45.926;13.608;2022-11-13T01:43:45;7.88;;;3.88;;
52188;SDS011;38162;45.926;13.608;2022-11-13T01:46:19;6.93;;;3.78;;
52188;SDS011;38162;45.926;13.608;2022-11-13T01:51:45;8.75;;;4.82;;
52188;SDS011;38162;45.926;13.608;2022-11-13T01:54:18;7.18;;;4.47;;
52188;SDS011;38162;45.926;13.608;2022-11-13T01:56:47;8.15;;;4.32;;
52188;SDS011;38162;45.926;13.608;2022-11-13T01:59:28;7.25;;;4.63;;
52188;SDS011;38162;45.926;13.608;2022-11-13T02:01:56;6.43;;;4.63;;
52188;SDS011;38162;45.926;13.608;2022-11-13T02:04:22;7.15;;;4.25;;
52188;SDS011;38162;45.926;13.608;2022-11-13T02:06:59;8.63;;;4.32;;
52188;SDS011;38162;45.926;13.608;2022-11-13T02:09:35;7.20;;;4.03;;
52188;SDS011;38162;45.926;13.608;2022-11-13T02:12:07;9.57;;;4.40;;
52188;SDS011;38162;45.926;13.608;2022-11-13T02:14:37;5.93;;;4.15;;
52188;SDS011;38162;45.926;13.608;2022-11-13T02:17:07;5.95;;;3.70;;
52188;SDS011;38162;45.926;13.608;2022-11-13T02:19:36;8.27;;;4.40;;
52188;SDS011;38162;45.926;13.608;2022-11-13T02:25:04;6.63;;;4.10;;
52188;SDS011;38162;45.926;13.608;2022-11-13T02:27:42;7.55;;;3.92;;
52188;SDS011;38162;45.926;13.608;2022-11-13T02:32:44;9.45;;;4.57;;
52188;SDS011;38162;45.926;13.608;2022-11-13T02:35:15;7.47;;;4.47;;
52188;SDS011;38162;45.926;13.608;2022-11-13T02:37:44;6.70;;;3.80;;
52188;SDS011;38162;45.926;13.608;2022-11-13T02:40:10;7.47;;;4.45;;
52188;SDS011;38162;45.926;13.608;2022-11-13T02:42:36;8.35;;;4.45;;
52188;SDS011;38162;45.926;13.608;2022-11-13T02:45:02;9.38;;;4.30;;
52188;SDS011;38162;45.926;13.608;2022-11-13T02:47:29;6.20;;;3.92;;
52188;SDS011;38162;45.926;13.608;2022-11-13T02:49:54;6.65;;;4.38;;
52188;SDS011;38162;45.926;13.608;2022-11-13T02:52:20;11.10;;;4.50;;
52188;SDS011;38162;45.926;13.608;2022-11-13T02:54:46;7.35;;;4.40;;
52188;SDS011;38162;45.926;13.608;2022-11-13T02:57:11;7.88;;;3.90;;
52188;SDS011;38162;45.926;13.608;2022-11-13T02:59:37;5.65;;;3.75;;
52188;SDS011;38162;45.926;13.608;2022-11-13T03:02:03;6.72;;;4.00;;
52188;SDS011;38162;45.926;13.608;2022-11-13T03:04:28;6.55;;;3.78;;
52188;SDS011;38162;45.926;13.608;2022-11-13T03:06:54;6.85;;;3.70;;
52188;SDS011;38162;45.926;13.608;2022-11-13T03:09:19;6.53;;;4.15;;
52188;SDS011;38162;45.926;13.608;2022-11-13T03:11:45;6.80;;;3.95;;
52188;SDS011;38162;45.926;13.608;2022-11-13T03:14:11;7.07;;;3.80;;
52188;SDS011;38162;45.926;13.608;2022-11-13T03:16:36;11.48;;;4.25;;
52188;SDS011;38162;45.926;13.608;2022-11-13T03:19:02;8.18;;;3.78;;
52188;SDS011;38162;45.926;13.608;2022-11-13T03:21:29;8.10;;;3.80;;
52188;SDS011;38162;45.926;13.608;2022-11-13T03:23:55;6.88;;;3.45;;
52188;SDS011;38162;45.926;13.608;2022-11-13T03:26:21;5.30;;;3.78;;
52188;SDS011;38162;45.926;13.608;2022-11-13T03:28:47;7.75;;;3.38;;
52188;SDS011;38162;45.926;13.608;2022-11-13T03:31:14;10.23;;;3.50;;
52188;SDS011;38162;45.926;13.608;2022-11-13T03:33:39;6.63;;;3.95;;
52188;SDS011;38162;45.926;13.608;2022-11-13T03:36:05;6.90;;;3.47;;
52188;SDS011;38162;45.926;13.608;2022-11-13T03:38:31;10.45;;;3.67;;
52188;SDS011;38162;45.926;13.608;2022-11-13T03:40:57;4.97;;;3.45;;
52188;SDS011;38162;45.926;13.608;2022-11-13T03:43:23;7.90;;;3.80;;
52188;SDS011;38162;45.926;13.608;2022-11-13T03:45:49;6.55;;;3.50;;
52188;SDS011;38162;45.926;13.608;2022-11-13T03:48:15;7.13;;;3.45;;
52188;SDS011;38162;45.926;13.608;2022-11-13T03:50:41;4.93;;;3.65;;
52188;SDS011;38162;45.926;13.608;2022-11-13T03:53:09;6.32;;;3.78;;
52188;SDS011;38162;45.926;13.608;2022-11-13T03:55:35;5.68;;;3.08;;
52188;SDS011;38162;45.926;13.608;2022-11-13T03:58:00;4.90;;;2.97;;
52188;SDS011;38162;45.926;13.608;2022-11-13T04:00:26;7.10;;;3.58;;
52188;SDS011;38162;45.926;13.608;2022-11-13T04:02:52;4.70;;;3.20;;
52188;SDS011;38162;45.926;13.608;2022-11-13T04:05:17;6.28;;;3.30;;
52188;SDS011;38162;45.926;13.608;2022-11-13T04:07:43;5.10;;;3.35;;
52188;SDS011;38162;45.926;13.608;2022-11-13T04:10:09;5.47;;;3.33;;
52188;SDS011;38162;45.926;13.608;2022-11-13T04:12:34;6.93;;;3.65;;
52188;SDS011;38162;45.926;13.608;2022-11-13T04:15:00;7.80;;;3.60;;
52188;SDS011;38162;45.926;13.608;2022-11-13T04:17:25;6.18;;;4.05;;
52188;SDS011;38162;45.926;13.608;2022-11-13T04:19:51;5.78;;;3.67;;
52188;SDS011;38162;45.926;13.608;2022-11-13T04:22:17;6.63;;;3.53;;
52188;SDS011;38162;45.926;13.608;2022-11-13T04:24:42;7.82;;;3.38;;
52188;SDS011;38162;45.926;13.608;2022-11-13T04:27:08;7.53;;;4.30;;
52188;SDS011;38162;45.926;13.608;2022-11-13T04:29:34;5.68;;;3.63;;
52188;SDS011;38162;45.926;13.608;2022-11-13T04:31:59;7.75;;;3.97;;
52188;SDS011;38162;45.926;13.608;2022-11-13T04:34:25;6.38;;;4.07;;
52188;SDS011;38162;45.926;13.608;2022-11-13T04:36:50;8.65;;;4.10;;
52188;SDS011;38162;45.926;13.608;2022-11-13T04:39:16;6.47;;;4.18;;
52188;SDS011;38162;45.926;13.608;2022-11-13T04:41:42;7.25;;;4.00;;
52188;SDS011;38162;45.926;13.608;2022-11-13T04:44:26;8.52;;;4.53;;
52188;SDS011;38162;45.926;13.608;2022-11-13T04:46:52;7.10;;;4.47;;
52188;SDS011;38162;45.926;13.608;2022-11-13T04:49:17;6.10;;;4.30;;
52188;SDS011;38162;45.926;13.608;2022-11-13T04:51:43;7.78;;;4.50;;
52188;SDS011;38162;45.926;13.608;2022-11-13T04:54:08;9.23;;;4.75;;
52188;SDS011;38162;45.926;13.608;2022-11-13T04:56:34;8.93;;;4.75;;
52188;SDS011;38162;45.926;13.608;2022-11-13T04:59:00;10.13;;;4.72;;
52188;SDS011;38162;45.926;13.608;2022-11-13T05:01:25;11.27;;;5.18;;
52188;SDS011;38162;45.926;13.608;2022-11-13T05:03:51;7.78;;;4.93;;
52188;SDS011;38162;45.926;13.608;2022-11-13T05:06:17;9.65;;;4.82;;
52188;SDS011;38162;45.926;13.608;2022-11-13T05:08:42;8.65;;;4.97;;
52188;SDS011;38162;45.926;13.608;2022-11-13T05:11:08;9.40;;;5.80;;
52188;SDS011;38162;45.926;13.608;2022-11-13T05:13:34;9.90;;;5.75;;
52188;SDS011;38162;45.926;13.608;2022-11-13T05:16:01;16.15;;;7.07;;
52188;SDS011;38162;45.926;13.608;2022-11-13T05:18:34;10.38;;;5.50;;
52188;SDS011;38162;45.926;13.608;2022-11-13T05:21:02;8.90;;;5.35;;
52188;SDS011;38162;45.926;13.608;2022-11-13T05:23:29;8.73;;;5.40;;
52188;SDS011;38162;45.926;13.608;2022-11-13T05:26:01;8.65;;;5.75;;
52188;SDS011;38162;45.926;13.608;2022-11-13T05:28:28;8.82;;;5.10;;
52188;SDS011;38162;45.926;13.608;2022-11-13T05:31:01;9.52;;;5.22;;
52188;SDS011;38162;45.926;13.608;2022-11-13T05:33:32;8.10;;;5.05;;
52188;SDS011;38162;45.926;13.608;2022-11-13T05:36:02;8.60;;;5.00;;
52188;SDS011;38162;45.926;13.608;2022-11-13T05:38:29;12.98;;;5.22;;
52188;SDS011;38162;45.926;13.608;2022-11-13T05:41:02;7.63;;;5.10;;
52188;SDS011;38162;45.926;13.608;2022-11-13T05:43:29;10.95;;;5.53;;
52188;SDS011;38162;45.926;13.608;2022-11-13T05:45:58;13.02;;;5.43;;
52188;SDS011;38162;45.926;13.608;2022-11-13T05:48:34;7.90;;;5.10;;
52188;SDS011;38162;45.926;13.608;2022-11-13T05:51:01;11.40;;;5.10;;
52188;SDS011;38162;45.926;13.608;2022-11-13T05:53:29;6.82;;;4.88;;
52188;SDS011;38162;45.926;13.608;2022-11-13T05:56:01;8.85;;;4.53;;
52188;SDS011;38162;45.926;13.608;2022-11-13T05:58:30;6.65;;;4.40;;
52188;SDS011;38162;45.926;13.608;2022-11-13T06:03:30;9.85;;;4.32;;
52188;SDS011;38162;45.926;13.608;2022-11-13T06:05:57;5.75;;;4.15;;
52188;SDS011;38162;45.926;13.608;2022-11-13T06:08:23;7.57;;;4.25;;
52188;SDS011;38162;45.926;13.608;2022-11-13T06:10:48;8.18;;;4.13;;
52188;SDS011;38162;45.926;13.608;2022-11-13T06:13:14;9.20;;;4.15;;
52188;SDS011;38162;45.926;13.608;2022-11-13T06:15:39;8.60;;;4.30;;
52188;SDS011;38162;45.926;13.608;2022-11-13T06:18:05;8.60;;;4.40;;
52188;SDS011;38162;45.926;13.608;2022-11-13T06:20:33;9.85;;;3.90;;
52188;SDS011;38162;45.926;13.608;2022-11-13T06:22:59;5.93;;;3.80;;
52188;SDS011;38162;45.926;13.608;2022-11-13T06:25:25;6.03;;;3.22;;
52188;SDS011;38162;45.926;13.608;2022-11-13T06:27:52;9.05;;;3.53;;
52188;SDS011;38162;45.926;13.608;2022-11-13T06:30:18;6.10;;;3.20;;
52188;SDS011;38162;45.926;13.608;2022-11-13T06:32:44;4.53;;;3.25;;
52188;SDS011;38162;45.926;13.608;2022-11-13T06:35:16;7.68;;;3.58;;
52188;SDS011;38162;45.926;13.608;2022-11-13T06:37:42;6.50;;;3.50;;
52188;SDS011;38162;45.926;13.608;2022-11-13T06:40:07;6.90;;;3.85;;
52188;SDS011;38162;45.926;13.608;2022-11-13T06:42:33;5.13;;;3.30;;
52188;SDS011;38162;45.926;13.608;2022-11-13T06:44:59;6.45;;;3.45;;
52188;SDS011;38162;45.926;13.608;2022-11-13T06:47:26;5.53;;;3.55;;
52188;SDS011;38162;45.926;13.608;2022-11-13T06:49:52;5.22;;;3.47;;
52188;SDS011;38162;45.926;13.608;2022-11-13T06:52:18;6.45;;;3.40;;
52188;SDS011;38162;45.926;13.608;2022-11-13T06:54:43;6.32;;;4.28;;
52188;SDS011;38162;45.926;13.608;2022-11-13T06:57:09;5.50;;;3.72;;
52188;SDS011;38162;45.926;13.608;2022-11-13T06:59:35;5.95;;;4.03;;
52188;SDS011;38162;45.926;13.608;2022-11-13T07:02:01;6.85;;;4.25;;
52188;SDS011;38162;45.926;13.608;2022-11-13T07:04:26;7.90;;;4.15;;
52188;SDS011;38162;45.926;13.608;2022-11-13T07:06:52;8.40;;;4.55;;
52188;SDS011;38162;45.926;13.608;2022-11-13T07:09:18;5.80;;;3.60;;
52188;SDS011;38162;45.926;13.608;2022-11-13T07:11:43;7.93;;;4.30;;
52188;SDS011;38162;45.926;13.608;2022-11-13T07:14:10;6.63;;;3.95;;
52188;SDS011;38162;45.926;13.608;2022-11-13T07:16:36;10.45;;;4.28;;
52188;SDS011;38162;45.926;13.608;2022-11-13T07:19:02;9.00;;;5.40;;
52188;SDS011;38162;45.926;13.608;2022-11-13T07:21:28;7.63;;;6.05;;
52188;SDS011;38162;45.926;13.608;2022-11-13T07:23:54;9.32;;;6.28;;
52188;SDS011;38162;45.926;13.608;2022-11-13T07:26:20;9.45;;;6.97;;
52188;SDS011;38162;45.926;13.608;2022-11-13T07:28:46;10.10;;;7.05;;
52188;SDS011;38162;45.926;13.608;2022-11-13T07:31:13;7.78;;;6.45;;
52188;SDS011;38162;45.926;13.608;2022-11-13T07:33:40;11.20;;;7.47;;
52188;SDS011;38162;45.926;13.608;2022-11-13T07:36:06;11.48;;;8.20;;
52188;SDS011;38162;45.926;13.608;2022-11-13T07:38:32;8.82;;;7.40;;
52188;SDS011;38162;45.926;13.608;2022-11-13T07:45:23;15.30;;;7.53;;
52188;SDS011;38162;45.926;13.608;2022-11-13T07:47:49;11.25;;;8.25;;
52188;SDS011;38162;45.926;13.608;2022-11-13T08:05:18;7.53;;;6.75;;
52188;SDS011;38162;45.926;13.608;2022-11-13T08:07:45;7.20;;;6.38;;
52188;SDS011;38162;45.926;13.608;2022-11-13T08:10:12;8.73;;;7.05;;
52188;SDS011;38162;45.926;13.608;2022-11-13T08:12:38;9.65;;;7.30;;
52188;SDS011;38162;45.926;13.608;2022-11-13T08:15:04;10.73;;;7.15;;
52188;SDS011;38162;45.926;13.608;2022-11-13T08:17:30;8.75;;;6.60;;
52188;SDS011;38162;45.926;13.608;2022-11-13T08:19:56;8.73;;;6.70;;
52188;SDS011;38162;45.926;13.608;2022-11-13T08:22:21;11.45;;;7.47;;
52188;SDS011;38162;45.926;13.608;2022-11-13T08:24:47;7.53;;;6.72;;
52188;SDS011;38162;45.926;13.608;2022-11-13T08:27:13;8.18;;;6.88;;
52188;SDS011;38162;45.926;13.608;2022-11-13T08:29:38;7.22;;;6.38;;
52188;SDS011;38162;45.926;13.608;2022-11-13T08:32:04;7.78;;;6.82;;
52188;SDS011;38162;45.926;13.608;2022-11-13T08:34:30;7.88;;;6.97;;
52188;SDS011;38162;45.926;13.608;2022-11-13T08:36:55;8.38;;;7.10;;
52188;SDS011;38162;45.926;13.608;2022-11-13T08:39:21;8.68;;;7.13;;
52188;SDS011;38162;45.926;13.608;2022-11-13T08:41:47;8.00;;;6.72;;
52188;SDS011;38162;45.926;13.608;2022-11-13T08:44:13;8.93;;;6.70;;
52188;SDS011;38162;45.926;13.608;2022-11-13T08:46:39;11.23;;;7.93;;
52188;SDS011;38162;45.926;13.608;2022-11-13T08:49:05;9.75;;;7.60;;
52188;SDS011;38162;45.926;13.608;2022-11-13T08:51:30;8.90;;;7.18;;
52188;SDS011;38162;45.926;13.608;2022-11-13T08:53:56;9.18;;;7.25;;
52188;SDS011;38162;45.926;13.608;2022-11-13T08:56:21;9.00;;;7.13;;
52188;SDS011;38162;45.926;13.608;2022-11-13T08:58:47;10.30;;;7.13;;
52188;SDS011;38162;45.926;13.608;2022-11-13T09:01:13;9.85;;;7.22;;
52188;SDS011;38162;45.926;13.608;2022-11-13T09:03:38;9.20;;;7.25;;
52188;SDS011;38162;45.926;13.608;2022-11-13T09:06:05;9.43;;;7.70;;
52188;SDS011;38162;45.926;13.608;2022-11-13T09:08:31;8.70;;;7.40;;
52188;SDS011;38162;45.926;13.608;2022-11-13T09:11:00;10.88;;;8.15;;
52188;SDS011;38162;45.926;13.608;2022-11-13T09:13:28;11.38;;;8.38;;
52188;SDS011;38162;45.926;13.608;2022-11-13T09:15:56;10.82;;;8.05;;
52188;SDS011;38162;45.926;13.608;2022-11-13T09:18:22;10.82;;;7.50;;
52188;SDS011;38162;45.926;13.608;2022-11-13T09:20:48;11.02;;;7.80;;
52188;SDS011;38162;45.926;13.608;2022-11-13T09:23:14;9.05;;;7.13;;
52188;SDS011;38162;45.926;13.608;2022-11-13T09:25:39;12.35;;;7.53;;
52188;SDS011;38162;45.926;13.608;2022-11-13T09:28:06;10.75;;;7.18;;
52188;SDS011;38162;45.926;13.608;2022-11-13T09:30:35;9.15;;;7.20;;
52188;SDS011;38162;45.926;13.608;2022-11-13T09:33:02;11.20;;;7.10;;
52188;SDS011;38162;45.926;13.608;2022-11-13T09:35:29;12.25;;;7.55;;
52188;SDS011;38162;45.926;13.608;2022-11-13T09:38:02;8.48;;;7.38;;
52188;SDS011;38162;45.926;13.608;2022-11-13T09:40:53;12.27;;;7.82;;
52188;SDS011;38162;45.926;13.608;2022-11-13T09:43:34;10.52;;;8.02;;
52188;SDS011;38162;45.926;13.608;2022-11-13T09:46:05;13.65;;;8.18;;
52188;SDS011;38162;45.926;13.608;2022-11-13T09:48:42;11.25;;;8.05;;
52188;SDS011;38162;45.926;13.608;2022-11-13T09:51:14;9.40;;;7.72;;
52188;SDS011;38162;45.926;13.608;2022-11-13T09:53:42;11.10;;;8.05;;
52188;SDS011;38162;45.926;13.608;2022-11-13T10:04:18;9.02;;;8.00;;
52188;SDS011;38162;45.926;13.608;2022-11-13T10:09:52;10.00;;;7.85;;
52188;SDS011;38162;45.926;13.608;2022-11-13T10:12:40;8.82;;;7.47;;
52188;SDS011;38162;45.926;13.608;2022-11-13T10:15:08;9.15;;;7.45;;
52188;SDS011;38162;45.926;13.608;2022-11-13T10:18:18;8.63;;;7.55;;
52188;SDS011;38162;45.926;13.608;2022-11-13T10:23:07;8.70;;;7.28;;
52188;SDS011;38162;45.926;13.608;2022-11-13T10:25:39;10.27;;;7.78;;
52188;SDS011;38162;45.926;13.608;2022-11-13T10:28:20;9.20;;;7.75;;
52188;SDS011;38162;45.926;13.608;2022-11-13T10:30:48;9.10;;;7.43;;
52188;SDS011;38162;45.926;13.608;2022-11-13T10:33:18;8.63;;;7.28;;
52188;SDS011;38162;45.926;13.608;2022-11-13T10:35:58;9.05;;;6.90;;
52188;SDS011;38162;45.926;13.608;2022-11-13T10:38:47;9.15;;;7.00;;
52188;SDS011;38162;45.926;13.608;2022-11-13T10:41:18;7.82;;;6.40;;
52188;SDS011;38162;45.926;13.608;2022-11-13T10:43:52;8.98;;;6.85;;
52188;SDS011;38162;45.926;13.608;2022-11-13T10:48:45;7.53;;;6.43;;
52188;SDS011;38162;45.926;13.608;2022-11-13T10:51:27;7.60;;;6.13;;
52188;SDS011;38162;45.926;13.608;2022-11-13T10:53:54;7.38;;;6.57;;
52188;SDS011;38162;45.926;13.608;2022-11-13T10:59:15;6.82;;;5.95;;
52188;SDS011;38162;45.926;13.608;2022-11-13T11:01:42;8.32;;;5.70;;
52188;SDS011;38162;45.926;13.608;2022-11-13T11:04:20;7.80;;;6.40;;
52188;SDS011;38162;45.926;13.608;2022-11-13T11:06:46;7.55;;;6.00;;
52188;SDS011;38162;45.926;13.608;2022-11-13T11:11:37;8.70;;;5.85;;
52188;SDS011;38162;45.926;13.608;2022-11-13T11:14:25;7.13;;;5.70;;
52188;SDS011;38162;45.926;13.608;2022-11-13T11:16:56;6.75;;;6.05;;
52188;SDS011;38162;45.926;13.608;2022-11-13T11:19:26;6.80;;;5.70;;
52188;SDS011;38162;45.926;13.608;2022-11-13T11:21:58;9.40;;;5.95;;
52188;SDS011;38162;45.926;13.608;2022-11-13T11:24:34;7.50;;;5.68;;
52188;SDS011;38162;45.926;13.608;2022-11-13T11:32:09;7.05;;;5.85;;
52188;SDS011;38162;45.926;13.608;2022-11-13T11:34:44;6.10;;;4.95;;
52188;SDS011;38162;45.926;13.608;2022-11-13T11:37:16;7.03;;;5.68;;
52188;SDS011;38162;45.926;13.608;2022-11-13T11:42:18;6.82;;;4.93;;
52188;SDS011;38162;45.926;13.608;2022-11-13T11:47:34;5.75;;;4.50;;
52188;SDS011;38162;45.926;13.608;2022-11-13T11:50:00;5.50;;;4.65;;
52188;SDS011;38162;45.926;13.608;2022-11-13T12:00:48;8.07;;;4.93;;
52188;SDS011;38162;45.926;13.608;2022-11-13T12:06:04;6.55;;;5.40;;
52188;SDS011;38162;45.926;13.608;2022-11-13T12:11:42;7.35;;;5.57;;
52188;SDS011;38162;45.926;13.608;2022-11-13T12:20:04;8.45;;;5.80;;
52188;SDS011;38162;45.926;13.608;2022-11-13T12:25:48;7.63;;;6.10;;
52188;SDS011;38162;45.926;13.608;2022-11-13T12:28:30;6.70;;;5.60;;
52188;SDS011;38162;45.926;13.608;2022-11-13T12:36:57;6.55;;;5.82;;
52188;SDS011;38162;45.926;13.608;2022-11-13T12:42:26;7.88;;;5.70;;
52188;SDS011;38162;45.926;13.608;2022-11-13T12:45:10;7.35;;;5.90;;
52188;SDS011;38162;45.926;13.608;2022-11-13T12:47:55;6.40;;;5.78;;
52188;SDS011;38162;45.926;13.608;2022-11-13T12:50:31;7.35;;;6.07;;
52188;SDS011;38162;45.926;13.608;2022-11-13T12:53:01;6.40;;;5.80;;
52188;SDS011;38162;45.926;13.608;2022-11-13T12:55:30;7.15;;;5.82;;
52188;SDS011;38162;45.926;13.608;2022-11-13T12:58:07;7.10;;;5.88;;
52188;SDS011;38162;45.926;13.608;2022-11-13T13:00:33;6.18;;;5.57;;
52188;SDS011;38162;45.926;13.608;2022-11-13T13:06:03;9.73;;;6.25;;
52188;SDS011;38162;45.926;13.608;2022-11-13T13:19:38;8.25;;;4.63;;
52188;SDS011;38162;45.926;13.608;2022-11-13T13:22:07;7.38;;;5.43;;
52188;SDS011;38162;45.926;13.608;2022-11-13T13:24:56;6.47;;;5.15;;
52188;SDS011;38162;45.926;13.608;2022-11-13T13:27:25;8.32;;;5.25;;
52188;SDS011;38162;45.926;13.608;2022-11-13T13:29:52;6.60;;;5.05;;
52188;SDS011;38162;45.926;13.608;2022-11-13T13:32:26;7.20;;;4.40;;
52188;SDS011;38162;45.926;13.608;2022-11-13T13:35:06;7.88;;;5.15;;
52188;SDS011;38162;45.926;13.608;2022-11-13T13:37:42;6.47;;;5.43;;
52188;SDS011;38162;45.926;13.608;2022-11-13T13:43:39;8.43;;;6.35;;
52188;SDS011;38162;45.926;13.608;2022-11-13T13:46:14;6.93;;;5.93;;
52188;SDS011;38162;45.926;13.608;2022-11-13T13:48:46;6.47;;;5.88;;
52188;SDS011;38162;45.926;13.608;2022-11-13T13:53:50;6.95;;;5.78;;
52188;SDS011;38162;45.926;13.608;2022-11-13T13:56:16;6.75;;;6.05;;
52188;SDS011;38162;45.926;13.608;2022-11-13T13:58:43;6.70;;;5.95;;
52188;SDS011;38162;45.926;13.608;2022-11-13T14:01:14;6.25;;;5.55;;
52188;SDS011;38162;45.926;13.608;2022-11-13T14:04:12;6.43;;;5.40;;
52188;SDS011;38162;45.926;13.608;2022-11-13T14:06:53;5.57;;;5.03;;
52188;SDS011;38162;45.926;13.608;2022-11-13T14:09:21;5.85;;;5.20;;
52188;SDS011;38162;45.926;13.608;2022-11-13T14:14:27;6.10;;;5.50;;
52188;SDS011;38162;45.926;13.608;2022-11-13T14:16:54;7.05;;;5.32;;
52188;SDS011;38162;45.926;13.608;2022-11-13T14:19:22;7.25;;;5.65;;
52188;SDS011;38162;45.926;13.608;2022-11-13T14:21:49;8.75;;;5.97;;
52188;SDS011;38162;45.926;13.608;2022-11-13T14:24:28;10.27;;;5.85;;
52188;SDS011;38162;45.926;13.608;2022-11-13T14:26:58;8.98;;;5.90;;
52188;SDS011;38162;45.926;13.608;2022-11-13T14:29:39;7.05;;;5.55;;
52188;SDS011;38162;45.926;13.608;2022-11-13T14:34:41;6.07;;;5.47;;
52188;SDS011;38162;45.926;13.608;2022-11-13T14:39:46;6.55;;;5.85;;
52188;SDS011;38162;45.926;13.608;2022-11-13T14:42:17;7.07;;;6.15;;
52188;SDS011;38162;45.926;13.608;2022-11-13T14:44:47;6.53;;;5.82;;
52188;SDS011;38162;45.926;13.608;2022-11-13T14:47:21;6.68;;;5.63;;
52188;SDS011;38162;45.926;13.608;2022-11-13T14:52:38;8.32;;;5.65;;
52188;SDS011;38162;45.926;13.608;2022-11-13T14:55:06;8.25;;;6.00;;
52188;SDS011;38162;45.926;13.608;2022-11-13T14:57:47;7.28;;;6.53;;
52188;SDS011;38162;45.926;13.608;2022-11-13T15:00:17;7.03;;;6.03;;
52188;SDS011;38162;45.926;13.608;2022-11-13T15:02:49;10.98;;;6.35;;
52188;SDS011;38162;45.926;13.608;2022-11-13T15:05:15;7.60;;;5.75;;
52188;SDS011;38162;45.926;13.608;2022-11-13T15:07:41;6.85;;;5.80;;
52188;SDS011;38162;45.926;13.608;2022-11-13T15:10:11;6.85;;;6.15;;
52188;SDS011;38162;45.926;13.608;2022-11-13T15:12:39;8.77;;;6.90;;
52188;SDS011;38162;45.926;13.608;2022-11-13T15:15:05;8.55;;;6.82;;
52188;SDS011;38162;45.926;13.608;2022-11-13T15:17:33;12.32;;;6.80;;
52188;SDS011;38162;45.926;13.608;2022-11-13T15:20:00;9.13;;;6.68;;
52188;SDS011;38162;45.926;13.608;2022-11-13T15:22:25;8.82;;;6.97;;
52188;SDS011;38162;45.926;13.608;2022-11-13T15:24:51;7.65;;;6.85;;
52188;SDS011;38162;45.926;13.608;2022-11-13T15:27:17;8.38;;;6.95;;
52188;SDS011;38162;45.926;13.608;2022-11-13T15:29:43;9.68;;;6.97;;
52188;SDS011;38162;45.926;13.608;2022-11-13T15:32:12;7.60;;;6.68;;
52188;SDS011;38162;45.926;13.608;2022-11-13T15:34:39;8.25;;;6.85;;
52188;SDS011;38162;45.926;13.608;2022-11-13T15:37:08;7.47;;;6.63;;
52188;SDS011;38162;45.926;13.608;2022-11-13T15:39:38;9.80;;;7.55;;
52188;SDS011;38162;45.926;13.608;2022-11-13T15:42:06;9.20;;;6.90;;
52188;SDS011;38162;45.926;13.608;2022-11-13T15:47:02;7.53;;;6.80;;
52188;SDS011;38162;45.926;13.608;2022-11-13T15:49:28;10.80;;;7.80;;
52188;SDS011;38162;45.926;13.608;2022-11-13T15:51:53;9.68;;;7.32;;
52188;SDS011;38162;45.926;13.608;2022-11-13T15:54:27;9.15;;;7.30;;
52188;SDS011;38162;45.926;13.608;2022-11-13T15:56:55;10.10;;;7.53;;
52188;SDS011;38162;45.926;13.608;2022-11-13T15:59:21;9.85;;;7.45;;
52188;SDS011;38162;45.926;13.608;2022-11-13T16:01:47;9.68;;;8.00;;
52188;SDS011;38162;45.926;13.608;2022-11-13T16:04:13;9.15;;;8.02;;
52188;SDS011;38162;45.926;13.608;2022-11-13T16:06:40;10.55;;;8.13;;
52188;SDS011;38162;45.926;13.608;2022-11-13T16:09:13;8.95;;;8.00;;
52188;SDS011;38162;45.926;13.608;2022-11-13T16:11:40;9.82;;;7.88;;
52188;SDS011;38162;45.926;13.608;2022-11-13T16:14:05;9.35;;;8.35;;
52188;SDS011;38162;45.926;13.608;2022-11-13T16:16:32;11.07;;;9.40;;
52188;SDS011;38162;45.926;13.608;2022-11-13T16:19:02;12.02;;;8.95;;
52188;SDS011;38162;45.926;13.608;2022-11-13T16:21:33;9.55;;;8.45;;
52188;SDS011;38162;45.926;13.608;2022-11-13T16:23:59;9.32;;;8.32;;
52188;SDS011;38162;45.926;13.608;2022-11-13T16:26:25;13.07;;;8.50;;
52188;SDS011;38162;45.926;13.608;2022-11-13T16:28:51;12.80;;;8.57;;
52188;SDS011;38162;45.926;13.608;2022-11-13T16:31:18;9.85;;;7.30;;
52188;SDS011;38162;45.926;13.608;2022-11-13T16:33:45;10.93;;;8.55;;
52188;SDS011;38162;45.926;13.608;2022-11-13T16:36:14;9.55;;;8.48;;
52188;SDS011;38162;45.926;13.608;2022-11-13T16:38:41;9.95;;;8.55;;
52188;SDS011;38162;45.926;13.608;2022-11-13T16:41:09;13.07;;;9.18;;
52188;SDS011;38162;45.926;13.608;2022-11-13T16:43:35;10.45;;;9.30;;
52188;SDS011;38162;45.926;13.608;2022-11-13T16:46:01;10.90;;;9.10;;
52188;SDS011;38162;45.926;13.608;2022-11-13T16:48:49;11.65;;;10.35;;